sensor_id;sensor_type;location;lat;lon;timestamp;P1;durP1;ratioP1;P2;durP2;ratioP2
5752;SDS011;2901;42.140;24.760;2023-04-25T00:01:35;2.10;;;1.95;;
5752;SDS011;2901;42.140;24.760;2023-04-25T00:04:01;2.10;;;2.00;;
5752;SDS011;2901;42.140;24.760;2023-04-25T00:06:27;1.83;;;1.80;;
5752;SDS011;2901;42.140;24.760;2023-04-25T00:08:55;2.75;;;2.25;;
5752;SDS011;2901;42.140;24.760;2023-04-25T00:11:21;2.35;;;2.25;;
5752;SDS011;2901;42.140;24.760;2023-04-25T00:13:47;2.40;;;2.30;;
5752;SDS011;2901;42.140;24.760;2023-04-25T00:16:14;2.60;;;2.40;;
5752;SDS011;2901;42.140;24.760;2023-04-25T00:18:41;2.50;;;2.40;;
5752;SDS011;2901;42.140;24.760;2023-04-25T00:21:07;2.53;;;2.42;;
5752;SDS011;2901;42.140;24.760;2023-04-25T00:23:33;2.78;;;2.67;;
5752;SDS011;2901;42.140;24.760;2023-04-25T00:26:00;2.60;;;2.40;;
5752;SDS011;2901;42.140;24.760;2023-04-25T00:28:26;3.05;;;2.83;;
5752;SDS011;2901;42.140;24.760;2023-04-25T00:30:51;2.75;;;2.65;;
5752;SDS011;2901;42.140;24.760;2023-04-25T00:33:16;2.58;;;2.47;;
5752;SDS011;2901;42.140;24.760;2023-04-25T00:35:42;3.10;;;3.00;;
5752;SDS011;2901;42.140;24.760;2023-04-25T00:38:07;2.47;;;2.38;;
5752;SDS011;2901;42.140;24.760;2023-04-25T00:40:32;2.95;;;2.85;;
5752;SDS011;2901;42.140;24.760;2023-04-25T00:42:58;2.78;;;2.58;;
5752;SDS011;2901;42.140;24.760;2023-04-25T00:45:26;2.72;;;2.60;;
5752;SDS011;2901;42.140;24.760;2023-04-25T00:47:54;3.15;;;3.05;;
5752;SDS011;2901;42.140;24.760;2023-04-25T00:50:19;2.95;;;2.85;;
5752;SDS011;2901;42.140;24.760;2023-04-25T00:52:45;3.13;;;3.03;;
5752;SDS011;2901;42.140;24.760;2023-04-25T00:55:11;4.38;;;2.97;;
5752;SDS011;2901;42.140;24.760;2023-04-25T00:57:37;3.03;;;2.92;;
5752;SDS011;2901;42.140;24.760;2023-04-25T01:00:04;3.08;;;2.88;;
5752;SDS011;2901;42.140;24.760;2023-04-25T01:02:32;2.90;;;2.72;;
5752;SDS011;2901;42.140;24.760;2023-04-25T01:04:58;2.67;;;2.58;;
5752;SDS011;2901;42.140;24.760;2023-04-25T01:07:24;2.90;;;2.80;;
5752;SDS011;2901;42.140;24.760;2023-04-25T01:09:51;2.90;;;2.72;;
5752;SDS011;2901;42.140;24.760;2023-04-25T01:12:17;2.88;;;2.78;;
5752;SDS011;2901;42.140;24.760;2023-04-25T01:14:42;3.13;;;3.03;;
5752;SDS011;2901;42.140;24.760;2023-04-25T01:17:08;2.78;;;2.67;;
5752;SDS011;2901;42.140;24.760;2023-04-25T01:19:34;3.10;;;2.90;;
5752;SDS011;2901;42.140;24.760;2023-04-25T01:22:00;2.80;;;2.70;;
5752;SDS011;2901;42.140;24.760;2023-04-25T01:24:26;4.18;;;3.00;;
5752;SDS011;2901;42.140;24.760;2023-04-25T01:26:51;2.90;;;2.80;;
5752;SDS011;2901;42.140;24.760;2023-04-25T01:29:18;3.15;;;2.95;;
5752;SDS011;2901;42.140;24.760;2023-04-25T01:31:45;3.10;;;2.90;;
5752;SDS011;2901;42.140;24.760;2023-04-25T01:34:11;2.80;;;2.70;;
5752;SDS011;2901;42.140;24.760;2023-04-25T01:36:37;3.50;;;3.40;;
5752;SDS011;2901;42.140;24.760;2023-04-25T01:39:03;3.55;;;3.25;;
5752;SDS011;2901;42.140;24.760;2023-04-25T01:41:28;3.65;;;3.55;;
5752;SDS011;2901;42.140;24.760;2023-04-25T01:43:54;3.15;;;3.05;;
5752;SDS011;2901;42.140;24.760;2023-04-25T01:46:20;4.05;;;3.85;;
5752;SDS011;2901;42.140;24.760;2023-04-25T01:48:45;4.10;;;3.13;;
5752;SDS011;2901;42.140;24.760;2023-04-25T01:51:11;3.25;;;3.15;;
5752;SDS011;2901;42.140;24.760;2023-04-25T01:53:38;3.47;;;3.28;;
5752;SDS011;2901;42.140;24.760;2023-04-25T01:56:04;3.80;;;3.70;;
5752;SDS011;2901;42.140;24.760;2023-04-25T01:58:30;3.92;;;3.83;;
5752;SDS011;2901;42.140;24.760;2023-04-25T02:00:55;4.50;;;3.97;;
5752;SDS011;2901;42.140;24.760;2023-04-25T02:03:21;4.88;;;4.53;;
5752;SDS011;2901;42.140;24.760;2023-04-25T02:05:46;5.88;;;5.57;;
5752;SDS011;2901;42.140;24.760;2023-04-25T02:08:12;5.65;;;5.35;;
5752;SDS011;2901;42.140;24.760;2023-04-25T02:10:37;7.15;;;6.57;;
5752;SDS011;2901;42.140;24.760;2023-04-25T02:13:02;7.25;;;6.85;;
5752;SDS011;2901;42.140;24.760;2023-04-25T02:15:29;8.23;;;7.63;;
5752;SDS011;2901;42.140;24.760;2023-04-25T02:17:54;6.90;;;6.60;;
5752;SDS011;2901;42.140;24.760;2023-04-25T02:20:20;7.32;;;6.93;;
5752;SDS011;2901;42.140;24.760;2023-04-25T02:22:47;7.75;;;7.15;;
5752;SDS011;2901;42.140;24.760;2023-04-25T02:25:12;6.57;;;6.28;;
5752;SDS011;2901;42.140;24.760;2023-04-25T02:27:38;8.20;;;7.70;;
5752;SDS011;2901;42.140;24.760;2023-04-25T02:30:04;7.35;;;7.05;;
5752;SDS011;2901;42.140;24.760;2023-04-25T02:32:31;8.07;;;7.38;;
5752;SDS011;2901;42.140;24.760;2023-04-25T02:34:57;6.88;;;6.43;;
5752;SDS011;2901;42.140;24.760;2023-04-25T02:37:27;6.47;;;6.15;;
5752;SDS011;2901;42.140;24.760;2023-04-25T02:39:52;5.65;;;5.35;;
5752;SDS011;2901;42.140;24.760;2023-04-25T02:42:18;5.78;;;5.47;;
5752;SDS011;2901;42.140;24.760;2023-04-25T02:44:43;5.53;;;5.13;;
5752;SDS011;2901;42.140;24.760;2023-04-25T02:47:08;5.90;;;5.60;;
5752;SDS011;2901;42.140;24.760;2023-04-25T02:49:34;6.22;;;5.80;;
5752;SDS011;2901;42.140;24.760;2023-04-25T02:51:59;6.57;;;6.18;;
5752;SDS011;2901;42.140;24.760;2023-04-25T02:54:24;6.47;;;5.97;;
5752;SDS011;2901;42.140;24.760;2023-04-25T02:56:50;6.43;;;6.00;;
5752;SDS011;2901;42.140;24.760;2023-04-25T02:59:15;6.30;;;6.00;;
5752;SDS011;2901;42.140;24.760;2023-04-25T03:01:40;6.90;;;6.50;;
5752;SDS011;2901;42.140;24.760;2023-04-25T03:04:06;7.28;;;6.95;;
5752;SDS011;2901;42.140;24.760;2023-04-25T03:06:31;7.93;;;7.43;;
5752;SDS011;2901;42.140;24.760;2023-04-25T03:08:57;8.15;;;7.72;;
5752;SDS011;2901;42.140;24.760;2023-04-25T03:11:23;8.25;;;7.70;;
5752;SDS011;2901;42.140;24.760;2023-04-25T03:13:50;6.90;;;6.50;;
5752;SDS011;2901;42.140;24.760;2023-04-25T03:16:15;9.05;;;8.38;;
5752;SDS011;2901;42.140;24.760;2023-04-25T03:18:41;8.20;;;7.80;;
5752;SDS011;2901;42.140;24.760;2023-04-25T03:21:06;7.25;;;6.85;;
5752;SDS011;2901;42.140;24.760;2023-04-25T03:23:32;6.70;;;6.30;;
5752;SDS011;2901;42.140;24.760;2023-04-25T03:25:57;7.20;;;6.50;;
5752;SDS011;2901;42.140;24.760;2023-04-25T03:28:23;7.45;;;6.95;;
5752;SDS011;2901;42.140;24.760;2023-04-25T03:30:48;7.45;;;7.05;;
5752;SDS011;2901;42.140;24.760;2023-04-25T03:33:14;6.43;;;6.00;;
5752;SDS011;2901;42.140;24.760;2023-04-25T03:35:39;6.90;;;6.35;;
5752;SDS011;2901;42.140;24.760;2023-04-25T03:38:04;6.78;;;6.32;;
5752;SDS011;2901;42.140;24.760;2023-04-25T03:40:30;7.13;;;6.82;;
5752;SDS011;2901;42.140;24.760;2023-04-25T03:42:55;6.53;;;6.22;;
5752;SDS011;2901;42.140;24.760;2023-04-25T03:45:21;7.25;;;6.85;;
5752;SDS011;2901;42.140;24.760;2023-04-25T03:47:46;6.38;;;5.97;;
5752;SDS011;2901;42.140;24.760;2023-04-25T03:50:11;6.43;;;6.03;;
5752;SDS011;2901;42.140;24.760;2023-04-25T03:52:37;6.70;;;6.35;;
5752;SDS011;2901;42.140;24.760;2023-04-25T03:55:02;6.50;;;6.18;;
5752;SDS011;2901;42.140;24.760;2023-04-25T03:57:29;6.93;;;6.53;;
5752;SDS011;2901;42.140;24.760;2023-04-25T03:59:54;6.55;;;6.25;;
5752;SDS011;2901;42.140;24.760;2023-04-25T04:02:20;7.68;;;7.28;;
5752;SDS011;2901;42.140;24.760;2023-04-25T04:04:45;7.38;;;6.97;;
5752;SDS011;2901;42.140;24.760;2023-04-25T04:07:11;7.85;;;7.25;;
5752;SDS011;2901;42.140;24.760;2023-04-25T04:09:36;8.00;;;7.50;;
5752;SDS011;2901;42.140;24.760;2023-04-25T04:12:01;7.95;;;7.35;;
5752;SDS011;2901;42.140;24.760;2023-04-25T04:14:27;7.70;;;7.18;;
5752;SDS011;2901;42.140;24.760;2023-04-25T04:16:53;9.73;;;8.90;;
5752;SDS011;2901;42.140;24.760;2023-04-25T04:19:18;8.45;;;7.95;;
5752;SDS011;2901;42.140;24.760;2023-04-25T04:21:44;7.43;;;7.03;;
5752;SDS011;2901;42.140;24.760;2023-04-25T04:24:09;8.52;;;7.93;;
5752;SDS011;2901;42.140;24.760;2023-04-25T04:26:35;8.02;;;7.53;;
5752;SDS011;2901;42.140;24.760;2023-04-25T04:29:01;8.07;;;7.68;;
5752;SDS011;2901;42.140;24.760;2023-04-25T04:31:27;8.73;;;8.13;;
5752;SDS011;2901;42.140;24.760;2023-04-25T04:33:54;9.48;;;8.98;;
5752;SDS011;2901;42.140;24.760;2023-04-25T04:36:20;9.88;;;8.98;;
5752;SDS011;2901;42.140;24.760;2023-04-25T04:38:47;9.07;;;8.25;;
5752;SDS011;2901;42.140;24.760;2023-04-25T04:41:12;10.63;;;9.40;;
5752;SDS011;2901;42.140;24.760;2023-04-25T04:43:37;8.30;;;7.75;;
5752;SDS011;2901;42.140;24.760;2023-04-25T04:46:04;10.07;;;9.38;;
5752;SDS011;2901;42.140;24.760;2023-04-25T04:48:33;9.35;;;8.52;;
5752;SDS011;2901;42.140;24.760;2023-04-25T04:50:59;9.82;;;8.90;;
5752;SDS011;2901;42.140;24.760;2023-04-25T04:53:25;9.05;;;8.10;;
5752;SDS011;2901;42.140;24.760;2023-04-25T04:55:50;8.98;;;8.20;;
5752;SDS011;2901;42.140;24.760;2023-04-25T04:58:16;13.18;;;10.13;;
5752;SDS011;2901;42.140;24.760;2023-04-25T05:00:41;10.80;;;9.07;;
5752;SDS011;2901;42.140;24.760;2023-04-25T05:03:07;14.52;;;13.02;;
5752;SDS011;2901;42.140;24.760;2023-04-25T05:05:32;14.70;;;9.82;;
5752;SDS011;2901;42.140;24.760;2023-04-25T05:07:58;11.40;;;8.18;;
5752;SDS011;2901;42.140;24.760;2023-04-25T05:10:23;15.77;;;8.68;;
5752;SDS011;2901;42.140;24.760;2023-04-25T05:12:49;12.10;;;9.00;;
5752;SDS011;2901;42.140;24.760;2023-04-25T05:15:14;9.73;;;8.82;;
5752;SDS011;2901;42.140;24.760;2023-04-25T05:17:40;11.65;;;9.43;;
5752;SDS011;2901;42.140;24.760;2023-04-25T05:20:06;12.32;;;9.60;;
5752;SDS011;2901;42.140;24.760;2023-04-25T05:22:32;10.10;;;9.40;;
5752;SDS011;2901;42.140;24.760;2023-04-25T05:24:58;10.38;;;9.45;;
5752;SDS011;2901;42.140;24.760;2023-04-25T05:27:23;10.55;;;9.65;;
5752;SDS011;2901;42.140;24.760;2023-04-25T05:29:49;11.02;;;9.77;;
5752;SDS011;2901;42.140;24.760;2023-04-25T05:32:14;10.85;;;9.75;;
5752;SDS011;2901;42.140;24.760;2023-04-25T05:34:39;13.40;;;11.65;;
5752;SDS011;2901;42.140;24.760;2023-04-25T05:37:05;22.38;;;11.68;;
5752;SDS011;2901;42.140;24.760;2023-04-25T05:39:30;28.92;;;13.18;;
5752;SDS011;2901;42.140;24.760;2023-04-25T05:41:55;17.92;;;10.68;;
5752;SDS011;2901;42.140;24.760;2023-04-25T05:44:21;9.82;;;8.95;;
5752;SDS011;2901;42.140;24.760;2023-04-25T05:46:46;11.02;;;10.30;;
5752;SDS011;2901;42.140;24.760;2023-04-25T05:49:12;10.50;;;9.55;;
5752;SDS011;2901;42.140;24.760;2023-04-25T05:51:38;12.07;;;11.27;;
5752;SDS011;2901;42.140;24.760;2023-04-25T05:54:04;11.43;;;10.68;;
5752;SDS011;2901;42.140;24.760;2023-04-25T05:56:30;12.63;;;11.13;;
5752;SDS011;2901;42.140;24.760;2023-04-25T05:58:55;22.92;;;11.98;;
5752;SDS011;2901;42.140;24.760;2023-04-25T06:01:21;12.05;;;11.20;;
5752;SDS011;2901;42.140;24.760;2023-04-25T06:03:47;11.48;;;10.60;;
5752;SDS011;2901;42.140;24.760;2023-04-25T06:06:13;11.82;;;10.45;;
5752;SDS011;2901;42.140;24.760;2023-04-25T06:08:39;12.75;;;10.48;;
5752;SDS011;2901;42.140;24.760;2023-04-25T06:11:05;9.27;;;8.77;;
5752;SDS011;2901;42.140;24.760;2023-04-25T06:13:31;21.17;;;10.18;;
5752;SDS011;2901;42.140;24.760;2023-04-25T06:15:56;10.65;;;8.82;;
5752;SDS011;2901;42.140;24.760;2023-04-25T06:18:22;12.20;;;9.25;;
5752;SDS011;2901;42.140;24.760;2023-04-25T06:20:47;21.30;;;10.13;;
5752;SDS011;2901;42.140;24.760;2023-04-25T06:23:12;45.17;;;12.00;;
5752;SDS011;2901;42.140;24.760;2023-04-25T06:25:38;10.68;;;9.82;;
5752;SDS011;2901;42.140;24.760;2023-04-25T06:28:03;11.38;;;9.60;;
5752;SDS011;2901;42.140;24.760;2023-04-25T06:30:28;27.27;;;11.45;;
5752;SDS011;2901;42.140;24.760;2023-04-25T06:32:54;20.42;;;10.43;;
5752;SDS011;2901;42.140;24.760;2023-04-25T06:35:20;14.48;;;9.65;;
5752;SDS011;2901;42.140;24.760;2023-04-25T06:37:46;10.43;;;9.30;;
5752;SDS011;2901;42.140;24.760;2023-04-25T06:40:11;10.18;;;9.18;;
5752;SDS011;2901;42.140;24.760;2023-04-25T06:42:36;15.82;;;11.15;;
5752;SDS011;2901;42.140;24.760;2023-04-25T06:45:02;11.98;;;10.80;;
5752;SDS011;2901;42.140;24.760;2023-04-25T06:47:28;16.50;;;12.55;;
5752;SDS011;2901;42.140;24.760;2023-04-25T06:49:54;11.05;;;10.10;;
5752;SDS011;2901;42.140;24.760;2023-04-25T06:52:20;12.38;;;11.63;;
5752;SDS011;2901;42.140;24.760;2023-04-25T06:54:45;10.82;;;10.13;;
5752;SDS011;2901;42.140;24.760;2023-04-25T06:57:10;15.10;;;10.75;;
5752;SDS011;2901;42.140;24.760;2023-04-25T06:59:36;12.38;;;11.40;;
5752;SDS011;2901;42.140;24.760;2023-04-25T07:02:01;18.58;;;10.90;;
5752;SDS011;2901;42.140;24.760;2023-04-25T07:04:27;26.05;;;10.77;;
5752;SDS011;2901;42.140;24.760;2023-04-25T07:06:52;12.82;;;11.48;;
5752;SDS011;2901;42.140;24.760;2023-04-25T07:09:18;17.83;;;9.48;;
5752;SDS011;2901;42.140;24.760;2023-04-25T07:11:44;11.93;;;10.63;;
5752;SDS011;2901;42.140;24.760;2023-04-25T07:14:09;9.57;;;8.88;;
5752;SDS011;2901;42.140;24.760;2023-04-25T07:16:35;33.75;;;11.07;;
5752;SDS011;2901;42.140;24.760;2023-04-25T07:19:00;10.40;;;9.13;;
5752;SDS011;2901;42.140;24.760;2023-04-25T07:21:25;11.63;;;10.68;;
5752;SDS011;2901;42.140;24.760;2023-04-25T07:23:51;13.27;;;10.20;;
5752;SDS011;2901;42.140;24.760;2023-04-25T07:26:16;10.77;;;9.63;;
5752;SDS011;2901;42.140;24.760;2023-04-25T07:28:42;10.65;;;9.68;;
5752;SDS011;2901;42.140;24.760;2023-04-25T07:31:08;19.17;;;9.73;;
5752;SDS011;2901;42.140;24.760;2023-04-25T07:33:33;10.50;;;9.73;;
5752;SDS011;2901;42.140;24.760;2023-04-25T07:35:59;11.77;;;9.95;;
5752;SDS011;2901;42.140;24.760;2023-04-25T07:38:25;15.40;;;10.50;;
5752;SDS011;2901;42.140;24.760;2023-04-25T07:40:51;9.75;;;9.20;;
5752;SDS011;2901;42.140;24.760;2023-04-25T07:43:17;11.93;;;9.43;;
5752;SDS011;2901;42.140;24.760;2023-04-25T07:45:43;9.77;;;9.10;;
5752;SDS011;2901;42.140;24.760;2023-04-25T07:48:09;10.63;;;9.60;;
5752;SDS011;2901;42.140;24.760;2023-04-25T07:50:35;10.02;;;9.13;;
5752;SDS011;2901;42.140;24.760;2023-04-25T07:53:00;9.63;;;8.85;;
5752;SDS011;2901;42.140;24.760;2023-04-25T07:55:25;9.90;;;9.02;;
5752;SDS011;2901;42.140;24.760;2023-04-25T07:57:51;8.20;;;7.70;;
5752;SDS011;2901;42.140;24.760;2023-04-25T08:00:17;11.02;;;8.98;;
5752;SDS011;2901;42.140;24.760;2023-04-25T08:02:43;10.32;;;9.13;;
5752;SDS011;2901;42.140;24.760;2023-04-25T08:05:08;8.25;;;7.65;;
5752;SDS011;2901;42.140;24.760;2023-04-25T08:07:37;9.15;;;8.40;;
5752;SDS011;2901;42.140;24.760;2023-04-25T08:10:04;12.63;;;8.95;;
5752;SDS011;2901;42.140;24.760;2023-04-25T08:12:30;14.52;;;8.15;;
5752;SDS011;2901;42.140;24.760;2023-04-25T08:14:56;7.80;;;7.28;;
5752;SDS011;2901;42.140;24.760;2023-04-25T08:17:21;6.80;;;6.22;;
5752;SDS011;2901;42.140;24.760;2023-04-25T08:19:47;5.95;;;5.40;;
5752;SDS011;2901;42.140;24.760;2023-04-25T08:22:12;5.75;;;5.47;;
5752;SDS011;2901;42.140;24.760;2023-04-25T08:24:38;6.13;;;5.68;;
5752;SDS011;2901;42.140;24.760;2023-04-25T08:27:03;6.05;;;5.50;;
5752;SDS011;2901;42.140;24.760;2023-04-25T08:29:28;6.00;;;5.47;;
5752;SDS011;2901;42.140;24.760;2023-04-25T08:31:54;9.55;;;5.65;;
5752;SDS011;2901;42.140;24.760;2023-04-25T08:34:19;4.60;;;4.40;;
5752;SDS011;2901;42.140;24.760;2023-04-25T08:36:45;6.13;;;5.60;;
5752;SDS011;2901;42.140;24.760;2023-04-25T08:39:10;2.92;;;2.80;;
5752;SDS011;2901;42.140;24.760;2023-04-25T08:41:36;2.92;;;2.80;;
5752;SDS011;2901;42.140;24.760;2023-04-25T08:44:02;4.45;;;2.85;;
5752;SDS011;2901;42.140;24.760;2023-04-25T08:46:29;3.10;;;2.90;;
5752;SDS011;2901;42.140;24.760;2023-04-25T08:49:00;3.72;;;2.45;;
5752;SDS011;2901;42.140;24.760;2023-04-25T08:51:27;2.47;;;2.38;;
5752;SDS011;2901;42.140;24.760;2023-04-25T08:53:56;2.42;;;2.28;;
5752;SDS011;2901;42.140;24.760;2023-04-25T08:56:46;2.38;;;2.05;;
5752;SDS011;2901;42.140;24.760;2023-04-25T08:59:12;2.75;;;2.60;;
5752;SDS011;2901;42.140;24.760;2023-04-25T09:01:38;2.88;;;2.70;;
5752;SDS011;2901;42.140;24.760;2023-04-25T09:04:04;2.50;;;2.30;;
5752;SDS011;2901;42.140;24.760;2023-04-25T09:06:29;2.35;;;2.25;;
5752;SDS011;2901;42.140;24.760;2023-04-25T09:09:05;2.53;;;2.42;;
5752;SDS011;2901;42.140;24.760;2023-04-25T09:11:32;3.38;;;3.17;;
5752;SDS011;2901;42.140;24.760;2023-04-25T09:21:55;4.03;;;3.83;;
5752;SDS011;2901;42.140;24.760;2023-04-25T09:24:38;3.47;;;3.28;;
5752;SDS011;2901;42.140;24.760;2023-04-25T09:27:07;3.60;;;3.40;;
5752;SDS011;2901;42.140;24.760;2023-04-25T09:29:35;3.20;;;3.00;;
5752;SDS011;2901;42.140;24.760;2023-04-25T09:32:15;4.18;;;3.88;;
5752;SDS011;2901;42.140;24.760;2023-04-25T09:34:49;3.65;;;3.45;;
5752;SDS011;2901;42.140;24.760;2023-04-25T09:37:22;2.20;;;2.10;;
5752;SDS011;2901;42.140;24.760;2023-04-25T09:39:49;3.25;;;2.75;;
5752;SDS011;2901;42.140;24.760;2023-04-25T09:42:28;4.78;;;2.50;;
5752;SDS011;2901;42.140;24.760;2023-04-25T09:44:56;2.67;;;2.58;;
5752;SDS011;2901;42.140;24.760;2023-04-25T09:47:23;5.13;;;3.05;;
5752;SDS011;2901;42.140;24.760;2023-04-25T09:49:49;6.97;;;2.63;;
5752;SDS011;2901;42.140;24.760;2023-04-25T09:52:17;3.65;;;2.78;;
5752;SDS011;2901;42.140;24.760;2023-04-25T09:54:44;3.42;;;3.13;;
5752;SDS011;2901;42.140;24.760;2023-04-25T09:57:19;5.38;;;3.42;;
5752;SDS011;2901;42.140;24.760;2023-04-25T10:02:16;3.53;;;2.63;;
5752;SDS011;2901;42.140;24.760;2023-04-25T10:04:44;9.57;;;3.05;;
5752;SDS011;2901;42.140;24.760;2023-04-25T10:07:13;4.05;;;2.95;;
5752;SDS011;2901;42.140;24.760;2023-04-25T10:09:39;5.10;;;2.70;;
5752;SDS011;2901;42.140;24.760;2023-04-25T10:12:06;3.10;;;2.42;;
5752;SDS011;2901;42.140;24.760;2023-04-25T10:14:32;2.80;;;2.60;;
5752;SDS011;2901;42.140;24.760;2023-04-25T10:16:58;3.15;;;2.38;;
5752;SDS011;2901;42.140;24.760;2023-04-25T10:19:25;2.95;;;2.75;;
5752;SDS011;2901;42.140;24.760;2023-04-25T10:24:28;2.72;;;2.47;;
5752;SDS011;2901;42.140;24.760;2023-04-25T10:26:53;3.83;;;2.67;;
5752;SDS011;2901;42.140;24.760;2023-04-25T10:29:24;2.30;;;2.08;;
5752;SDS011;2901;42.140;24.760;2023-04-25T10:31:50;2.30;;;2.20;;
5752;SDS011;2901;42.140;24.760;2023-04-25T10:34:16;2.28;;;2.17;;
5752;SDS011;2901;42.140;24.760;2023-04-25T10:36:42;2.33;;;2.13;;
5752;SDS011;2901;42.140;24.760;2023-04-25T10:39:13;2.20;;;2.00;;
5752;SDS011;2901;42.140;24.760;2023-04-25T10:41:52;1.90;;;1.80;;
5752;SDS011;2901;42.140;24.760;2023-04-25T10:44:20;2.40;;;2.13;;
5752;SDS011;2901;42.140;24.760;2023-04-25T10:46:46;2.33;;;2.13;;
5752;SDS011;2901;42.140;24.760;2023-04-25T10:49:28;3.92;;;2.50;;
5752;SDS011;2901;42.140;24.760;2023-04-25T10:54:52;5.47;;;4.95;;
5752;SDS011;2901;42.140;24.760;2023-04-25T11:02:41;3.63;;;2.30;;
5752;SDS011;2901;42.140;24.760;2023-04-25T11:05:37;4.30;;;2.70;;
5752;SDS011;2901;42.140;24.760;2023-04-25T11:08:03;2.65;;;2.45;;
5752;SDS011;2901;42.140;24.760;2023-04-25T11:10:36;2.80;;;2.65;;
5752;SDS011;2901;42.140;24.760;2023-04-25T11:13:01;2.75;;;2.55;;
5752;SDS011;2901;42.140;24.760;2023-04-25T11:15:27;5.72;;;3.55;;
5752;SDS011;2901;42.140;24.760;2023-04-25T11:17:53;4.47;;;2.85;;
5752;SDS011;2901;42.140;24.760;2023-04-25T11:20:19;2.55;;;2.45;;
5752;SDS011;2901;42.140;24.760;2023-04-25T11:22:46;2.30;;;2.20;;
5752;SDS011;2901;42.140;24.760;2023-04-25T11:25:12;3.08;;;2.88;;
5752;SDS011;2901;42.140;24.760;2023-04-25T11:27:55;3.30;;;2.92;;
5752;SDS011;2901;42.140;24.760;2023-04-25T11:30:22;2.72;;;2.58;;
5752;SDS011;2901;42.140;24.760;2023-04-25T11:32:49;7.07;;;2.50;;
5752;SDS011;2901;42.140;24.760;2023-04-25T11:35:15;2.72;;;2.63;;
5752;SDS011;2901;42.140;24.760;2023-04-25T11:37:41;3.00;;;2.90;;
5752;SDS011;2901;42.140;24.760;2023-04-25T11:40:08;3.85;;;3.65;;
5752;SDS011;2901;42.140;24.760;2023-04-25T11:42:44;3.20;;;2.90;;
5752;SDS011;2901;42.140;24.760;2023-04-25T11:45:11;4.43;;;3.65;;
5752;SDS011;2901;42.140;24.760;2023-04-25T11:47:37;6.30;;;3.10;;
5752;SDS011;2901;42.140;24.760;2023-04-25T11:50:03;3.42;;;3.10;;
5752;SDS011;2901;42.140;24.760;2023-04-25T11:55:04;4.28;;;3.90;;
5752;SDS011;2901;42.140;24.760;2023-04-25T11:57:32;4.32;;;3.65;;
5752;SDS011;2901;42.140;24.760;2023-04-25T12:00:05;4.07;;;3.72;;
5752;SDS011;2901;42.140;24.760;2023-04-25T12:02:37;8.77;;;2.95;;
5752;SDS011;2901;42.140;24.760;2023-04-25T12:05:06;5.55;;;2.92;;
5752;SDS011;2901;42.140;24.760;2023-04-25T12:07:33;3.38;;;2.90;;
5752;SDS011;2901;42.140;24.760;2023-04-25T12:09:59;2.97;;;2.80;;
5752;SDS011;2901;42.140;24.760;2023-04-25T12:12:27;3.35;;;3.17;;
5752;SDS011;2901;42.140;24.760;2023-04-25T12:14:56;7.97;;;2.70;;
5752;SDS011;2901;42.140;24.760;2023-04-25T12:17:34;7.60;;;3.10;;
5752;SDS011;2901;42.140;24.760;2023-04-25T12:20:00;6.45;;;3.45;;
5752;SDS011;2901;42.140;24.760;2023-04-25T12:22:32;4.88;;;3.72;;
5752;SDS011;2901;42.140;24.760;2023-04-25T12:24:58;2.45;;;2.25;;
5752;SDS011;2901;42.140;24.760;2023-04-25T12:27:23;3.28;;;2.63;;
5752;SDS011;2901;42.140;24.760;2023-04-25T12:29:52;3.13;;;2.90;;
5752;SDS011;2901;42.140;24.760;2023-04-25T12:32:18;2.45;;;2.35;;
5752;SDS011;2901;42.140;24.760;2023-04-25T12:34:44;17.10;;;3.22;;
5752;SDS011;2901;42.140;24.760;2023-04-25T12:37:10;3.45;;;3.25;;
5752;SDS011;2901;42.140;24.760;2023-04-25T12:39:35;3.10;;;2.90;;
5752;SDS011;2901;42.140;24.760;2023-04-25T12:42:01;3.30;;;3.10;;
5752;SDS011;2901;42.140;24.760;2023-04-25T12:44:27;6.93;;;3.17;;
5752;SDS011;2901;42.140;24.760;2023-04-25T12:46:52;5.65;;;2.50;;
5752;SDS011;2901;42.140;24.760;2023-04-25T12:49:19;5.35;;;3.20;;
5752;SDS011;2901;42.140;24.760;2023-04-25T12:51:44;3.05;;;2.85;;
5752;SDS011;2901;42.140;24.760;2023-04-25T12:54:10;4.70;;;2.95;;
5752;SDS011;2901;42.140;24.760;2023-04-25T12:56:36;4.65;;;2.95;;
5752;SDS011;2901;42.140;24.760;2023-04-25T12:59:01;5.78;;;2.85;;
5752;SDS011;2901;42.140;24.760;2023-04-25T13:01:30;4.15;;;3.00;;
5752;SDS011;2901;42.140;24.760;2023-04-25T13:03:56;2.10;;;2.00;;
5752;SDS011;2901;42.140;24.760;2023-04-25T13:06:22;3.35;;;2.35;;
5752;SDS011;2901;42.140;24.760;2023-04-25T13:08:48;2.65;;;2.42;;
5752;SDS011;2901;42.140;24.760;2023-04-25T13:11:13;2.67;;;2.58;;
5752;SDS011;2901;42.140;24.760;2023-04-25T13:13:40;2.63;;;2.42;;
5752;SDS011;2901;42.140;24.760;2023-04-25T13:16:06;2.70;;;2.50;;
5752;SDS011;2901;42.140;24.760;2023-04-25T13:18:32;2.35;;;2.17;;
5752;SDS011;2901;42.140;24.760;2023-04-25T13:20:58;2.63;;;2.42;;
5752;SDS011;2901;42.140;24.760;2023-04-25T13:23:27;2.20;;;1.98;;
5752;SDS011;2901;42.140;24.760;2023-04-25T13:25:54;1.55;;;1.40;;
5752;SDS011;2901;42.140;24.760;2023-04-25T13:28:20;2.95;;;1.40;;
5752;SDS011;2901;42.140;24.760;2023-04-25T13:30:46;1.60;;;1.55;;
5752;SDS011;2901;42.140;24.760;2023-04-25T13:33:13;2.40;;;1.50;;
5752;SDS011;2901;42.140;24.760;2023-04-25T13:35:38;1.85;;;1.70;;
5752;SDS011;2901;42.140;24.760;2023-04-25T13:38:04;3.42;;;1.38;;
5752;SDS011;2901;42.140;24.760;2023-04-25T13:40:30;1.30;;;1.30;;
5752;SDS011;2901;42.140;24.760;2023-04-25T13:42:56;1.20;;;1.20;;
5752;SDS011;2901;42.140;24.760;2023-04-25T13:45:22;1.70;;;1.33;;
5752;SDS011;2901;42.140;24.760;2023-04-25T13:47:48;1.15;;;1.15;;
5752;SDS011;2901;42.140;24.760;2023-04-25T13:50:13;3.03;;;0.80;;
5752;SDS011;2901;42.140;24.760;2023-04-25T13:52:39;1.27;;;1.20;;
5752;SDS011;2901;42.140;24.760;2023-04-25T13:55:05;1.10;;;1.10;;
5752;SDS011;2901;42.140;24.760;2023-04-25T13:57:32;1.05;;;1.05;;
5752;SDS011;2901;42.140;24.760;2023-04-25T13:59:58;0.80;;;0.80;;
5752;SDS011;2901;42.140;24.760;2023-04-25T14:02:24;0.90;;;0.90;;
5752;SDS011;2901;42.140;24.760;2023-04-25T14:04:50;1.20;;;1.10;;
5752;SDS011;2901;42.140;24.760;2023-04-25T14:07:16;1.98;;;1.88;;
5752;SDS011;2901;42.140;24.760;2023-04-25T14:09:42;1.15;;;1.15;;
5752;SDS011;2901;42.140;24.760;2023-04-25T14:12:07;3.85;;;1.92;;
5752;SDS011;2901;42.140;24.760;2023-04-25T14:14:33;2.28;;;1.67;;
5752;SDS011;2901;42.140;24.760;2023-04-25T14:16:58;5.85;;;1.00;;
5752;SDS011;2901;42.140;24.760;2023-04-25T14:19:24;1.70;;;1.60;;
5752;SDS011;2901;42.140;24.760;2023-04-25T14:21:49;1.77;;;1.33;;
5752;SDS011;2901;42.140;24.760;2023-04-25T14:24:15;1.02;;;1.02;;
5752;SDS011;2901;42.140;24.760;2023-04-25T14:26:40;3.97;;;1.25;;
5752;SDS011;2901;42.140;24.760;2023-04-25T14:29:07;1.13;;;1.13;;
5752;SDS011;2901;42.140;24.760;2023-04-25T14:31:33;2.85;;;1.33;;
5752;SDS011;2901;42.140;24.760;2023-04-25T14:34:00;2.22;;;1.30;;
5752;SDS011;2901;42.140;24.760;2023-04-25T14:36:27;2.47;;;1.15;;
5752;SDS011;2901;42.140;24.760;2023-04-25T14:38:53;2.38;;;1.05;;
5752;SDS011;2901;42.140;24.760;2023-04-25T14:41:19;1.17;;;1.17;;
5752;SDS011;2901;42.140;24.760;2023-04-25T14:43:44;0.85;;;0.85;;
5752;SDS011;2901;42.140;24.760;2023-04-25T14:46:10;1.20;;;1.20;;
5752;SDS011;2901;42.140;24.760;2023-04-25T14:48:36;1.50;;;1.42;;
5752;SDS011;2901;42.140;24.760;2023-04-25T14:51:01;1.13;;;1.02;;
5752;SDS011;2901;42.140;24.760;2023-04-25T14:53:27;1.60;;;1.48;;
5752;SDS011;2901;42.140;24.760;2023-04-25T14:55:52;1.02;;;1.02;;
5752;SDS011;2901;42.140;24.760;2023-04-25T14:58:18;4.35;;;1.70;;
5752;SDS011;2901;42.140;24.760;2023-04-25T15:00:44;1.23;;;1.23;;
5752;SDS011;2901;42.140;24.760;2023-04-25T15:03:11;2.40;;;0.95;;
5752;SDS011;2901;42.140;24.760;2023-04-25T15:05:37;3.55;;;0.93;;
5752;SDS011;2901;42.140;24.760;2023-04-25T15:08:03;1.15;;;1.02;;
5752;SDS011;2901;42.140;24.760;2023-04-25T15:10:29;0.80;;;0.80;;
5752;SDS011;2901;42.140;24.760;2023-04-25T15:12:54;1.67;;;0.82;;
5752;SDS011;2901;42.140;24.760;2023-04-25T15:15:20;2.00;;;0.85;;
5752;SDS011;2901;42.140;24.760;2023-04-25T15:17:45;2.05;;;0.80;;